Time;durP1;ratioP1;P1;durP2;ratioP2;P2;SDS_P1;SDS_P2;PMS_P1;PMS_P2;Temp;Humidity;BMP_temperature;BMP_pressure;BME280_temperature;BME280_humidity;BME280_pressure;Samples;Min_cycle;Max_cycle;Signal;HPM_P1;HPM_P2
2024/02/16 00:00:49;;;;;;;;;;;;;;;;;;6297086;28;19977;-79
2024/02/16 00:03:49;;;;;;;;;;;;;;;;;;6303184;28;19915;-79
2024/02/16 00:06:49;;;;;;;;;;;;;;;;;;6319639;28;19911;-79
2024/02/16 00:09:49;;;;;;;;;;;;;;;;;;6311285;28;19915;-79
2024/02/16 00:12:49;;;;;;;;;;;;;;;;;;6327185;28;19915;-80
2024/02/16 00:15:49;;;;;;;;;;;;;;;;;;6333855;28;19908;-80
2024/02/16 00:18:50;;;;;;;;;;;;;;;;;;6298141;28;19908;-79
2024/02/16 00:21:51;;;;;;;;;;;;;;;;;;6311504;28;19918;-79
2024/02/16 00:24:51;;;;;;;;;;;;;;;;;;6303805;28;19904;-79
2024/02/16 00:27:54;;;;;;;;;;;;;;;;;;6297203;28;19944;-79
2024/02/16 00:30:55;;;;;;;;;;;;;;;;;;6316092;28;19952;-79
2024/02/16 00:33:55;;;;;;;;;;;;;;;;;;6322718;28;19904;-79
2024/02/16 00:36:55;;;;;;;;;;;;;;;;;;6322803;28;19912;-79
2024/02/16 00:39:55;;;;;;;;;;;;;;;;;;6320437;28;20031;-79
2024/02/16 00:42:55;;;;;;;;;;;;;;;;;;6321850;28;20406;-79
2024/02/16 00:45:55;;;;;;;;;;;;;;;;;;6296282;28;20003;-79
2024/02/16 00:48:56;;;;;;;;;;;;;;;;;;6312342;28;19903;-79
2024/02/16 00:51:56;;;;;;;;;;;;;;;;;;6322323;28;19966;-79
2024/02/16 00:54:56;;;;;;;;;;;;;;;;;;6320473;28;19908;-79
2024/02/16 00:57:56;;;;;;;;;;;;;;;;;;6307975;28;19913;-79
2024/02/16 01:00:56;;;;;;;;;;;;;;;;;;6296345;28;19912;-79
2024/02/16 01:03:56;;;;;;;;;;;;;;;;;;6312775;28;19904;-79
2024/02/16 01:06:57;;;;;;;;;;;;;;;;;;6317475;28;20250;-79
2024/02/16 01:09:57;;;;;;;;;;;;;;;;;;6322729;28;19908;-80
2024/02/16 01:12:57;;;;;;;;;;;;;;;;;;6308537;28;19924;-79
2024/02/16 01:15:57;;;;;;;;;;;;;;;;;;6300919;28;19908;-79
2024/02/16 01:18:57;;;;;;;;;;;;;;;;;;6300572;28;20349;-79
2024/02/16 01:21:58;;;;;;;;;;;;;;;;;;6277038;28;19916;-79
2024/02/16 01:24:59;;;;;;;;;;;;;;;;;;6277369;28;19958;-79
2024/02/16 01:27:59;;;;;;;;;;;;;;;;;;6261045;28;19971;-79
2024/02/16 01:30:59;;;;;;;;;;;;;;;;;;6298541;28;19999;-76
2024/02/16 01:33:59;;;;;;;;;;;;;;;;;;6282895;28;19991;-76
2024/02/16 01:36:59;;;;;;;;;;;;;;;;;;6301400;28;19999;-76
2024/02/16 01:40:00;;;;;;;;;;;;;;;;;;6300066;28;20000;-75
2024/02/16 01:43:01;;;;;;;;;;;;;;;;;;6298783;28;19917;-76
2024/02/16 01:46:01;;;;;;;;;;;;;;;;;;6298694;28;19904;-75
2024/02/16 01:49:01;;;;;;;;;;;;;;;;;;6286498;28;19974;-76
2024/02/16 01:52:01;;;;;;;;;;;;;;;;;;6294714;28;19974;-76
2024/02/16 01:55:03;;;;;;;;;;;;;;;;;;6258378;28;20392;-76
2024/02/16 01:58:03;;;;;;;;;;;;;;;;;;6257518;28;19908;-76
2024/02/16 02:01:04;;;;;;;;;;;;;;;;;;6297953;28;19920;-76
2024/02/16 02:04:05;;;;;;;;;;;;;;;;;;6276490;28;19911;-76
2024/02/16 02:07:06;;;;;;;;;;;;;;;;;;6281668;28;20424;-76
2024/02/16 02:10:06;;;;;;;;;;;;;;;;;;6291203;28;19909;-75
2024/02/16 02:13:06;;;;;;;;;;;;;;;;;;6297282;28;19916;-76
2024/02/16 02:16:06;;;;;;;;;;;;;;;;;;6289147;28;19905;-76
2024/02/16 02:19:06;;;;;;;;;;;;;;;;;;6281641;28;20426;-76
2024/02/16 02:22:06;;;;;;;;;;;;;;;;;;6297643;28;20059;-76
2024/02/16 02:25:06;;;;;;;;;;;;;;;;;;6294612;28;20002;-75
2024/02/16 02:28:08;;;;;;;;;;;;;;;;;;6286634;28;19911;-76
2024/02/16 02:31:09;;;;;;;;;;;;;;;;;;6274143;28;20118;-76
2024/02/16 02:34:09;;;;;;;;;;;;;;;;;;6256814;28;19952;-76
2024/02/16 02:37:09;;;;;;;;;;;;;;;;;;6270588;28;20273;-76
2024/02/16 02:40:09;;;;;;;;;;;;;;;;;;6298921;28;19963;-78
2024/02/16 02:43:09;;;;;;;;;;;;;;;;;;6299268;28;20011;-79
2024/02/16 02:46:09;;;;;;;;;;;;;;;;;;6298772;28;19909;-79
2024/02/16 02:49:09;;;;;;;;;;;;;;;;;;6307191;28;19911;-79
2024/02/16 02:52:10;;;;;;;;;;;;;;;;;;6292329;28;19915;-79
2024/02/16 02:55:11;;;;;;;;;;;;;;;;;;6295176;28;20375;-80
2024/02/16 02:58:11;;;;;;;;;;;;;;;;;;6298919;28;19908;-79
2024/02/16 03:01:11;;;;;;;;;;;;;;;;;;6298636;28;19912;-79
2024/02/16 03:04:11;;;;;;;;;;;;;;;;;;6298875;28;19904;-79
2024/02/16 03:07:11;;;;;;;;;;;;;;;;;;6299109;28;20343;-79
2024/02/16 03:10:12;;;;;;;;;;;;;;;;;;6297102;28;19931;-79
2024/02/16 03:13:14;;;;;;;;;;;;;;;;;;6310158;28;19916;-80
2024/02/16 03:16:14;;;;;;;;;;;;;;;;;;6348109;27;20253;-79
2024/02/16 03:19:14;;;;;;;;;;;;;;;;;;6346092;28;19916;-80
2024/02/16 03:22:14;;;;;;;;;;;;;;;;;;6322949;28;20287;-79
2024/02/16 03:25:14;;;;;;;;;;;;;;;;;;6324257;28;19970;-79
2024/02/16 03:28:15;;;;;;;;;;;;;;;;;;6320125;28;19951;-79
2024/02/16 03:31:15;;;;;;;;;;;;;;;;;;6322688;28;20384;-79
2024/02/16 03:34:15;;;;;;;;;;;;;;;;;;6321873;28;19911;-79
2024/02/16 03:37:15;;;;;;;;;;;;;;;;;;6322229;28;19908;-79
2024/02/16 03:40:16;;;;;;;;;;;;;;;;;;6308878;28;20526;-79
2024/02/16 03:43:16;;;;;;;;;;;;;;;;;;6308234;28;19943;-79
2024/02/16 03:46:17;;;;;;;;;;;;;;;;;;6297310;28;19931;-80
2024/02/16 03:49:17;;;;;;;;;;;;;;;;;;6297541;28;19915;-79
2024/02/16 03:52:17;;;;;;;;;;;;;;;;;;6297198;28;19915;-80
2024/02/16 03:55:17;;;;;;;;;;;;;;;;;;6308784;28;19978;-79
2024/02/16 03:58:17;;;;;;;;;;;;;;;;;;6321537;28;19915;-80
2024/02/16 04:01:18;;;;;;;;;;;;;;;;;;6320746;28;20339;-79
2024/02/16 04:04:18;;;;;;;;;;;;;;;;;;6321493;28;19904;-80
2024/02/16 04:07:18;;;;;;;;;;;;;;;;;;6322173;28;19912;-79
2024/02/16 04:10:18;;;;;;;;;;;;;;;;;;6317155;28;19912;-79
2024/02/16 04:13:18;;;;;;;;;;;;;;;;;;6320811;28;19931;-78
2024/02/16 04:16:22;;;;;;;;;;;;;;;;;;6321534;28;19912;-80
2024/02/16 04:19:22;;;;;;;;;;;;;;;;;;6316524;28;19905;-80
2024/02/16 04:22:22;;;;;;;;;;;;;;;;;;6297779;28;20279;-79
2024/02/16 04:25:22;;;;;;;;;;;;;;;;;;6314514;28;19908;-79
2024/02/16 04:28:24;;;;;;;;;;;;;;;;;;6318385;28;19908;-79
2024/02/16 04:31:24;;;;;;;;;;;;;;;;;;6319184;28;20277;-79
2024/02/16 04:34:24;;;;;;;;;;;;;;;;;;6303266;28;20269;-79
2024/02/16 04:37:25;;;;;;;;;;;;;;;;;;6316519;28;19908;-79
2024/02/16 04:40:25;;;;;;;;;;;;;;;;;;6323114;28;19904;-79
2024/02/16 04:43:25;;;;;;;;;;;;;;;;;;6340635;28;20288;-79
2024/02/16 04:46:26;;;;;;;;;;;;;;;;;;6328979;28;20284;-79
2024/02/16 04:49:27;;;;;;;;;;;;;;;;;;6325130;28;19915;-79
2024/02/16 04:52:27;;;;;;;;;;;;;;;;;;6311767;28;19952;-79
2024/02/16 04:55:28;;;;;;;;;;;;;;;;;;6328015;28;19951;-79
2024/02/16 04:58:28;;;;;;;;;;;;;;;;;;6326517;28;20295;-79
2024/02/16 05:01:29;;;;;;;;;;;;;;;;;;6326518;28;19999;-79
2024/02/16 05:04:29;;;;;;;;;;;;;;;;;;6319723;28;19913;-79
2024/02/16 05:07:31;;;;;;;;;;;;;;;;;;6301406;28;19905;-78
2024/02/16 05:10:31;;;;;;;;;;;;;;;;;;6313755;28;19908;-79
2024/02/16 05:13:31;;;;;;;;;;;;;;;;;;6336801;28;19915;-79
2024/02/16 05:16:32;;;;;;;;;;;;;;;;;;6351395;28;20006;-79
2024/02/16 05:19:32;;;;;;;;;;;;;;;;;;6327534;28;19915;-79
2024/02/16 05:22:32;;;;;;;;;;;;;;;;;;6327363;28;19912;-79
2024/02/16 05:25:32;;;;;;;;;;;;;;;;;;6315638;28;19905;-79
2024/02/16 05:28:32;;;;;;;;;;;;;;;;;;6321097;28;19961;-79
2024/02/16 05:31:32;;;;;;;;;;;;;;;;;;6325695;28;19904;-79
2024/02/16 05:34:37;;;;;;;;;;;;;;;;;;6324716;28;19907;-80
2024/02/16 05:37:37;;;;;;;;;;;;;;;;;;6326019;28;20319;-81
2024/02/16 05:40:53;;;;;;;;;;;;;;;;;;6317738;28;19907;-80
2024/02/16 05:43:53;;;;;;;;;;;;;;;;;;6324379;28;19904;-80
2024/02/16 05:46:54;;;;;;;;;;;;;;;;;;6321074;28;20352;-79
2024/02/16 05:49:54;;;;;;;;;;;;;;;;;;6326269;28;19910;-79
2024/02/16 05:52:55;;;;;;;;;;;;;;;;;;6326244;28;19947;-78
2024/02/16 05:55:55;;;;;;;;;;;;;;;;;;6326379;28;19904;-78
2024/02/16 05:58:55;;;;;;;;;;;;;;;;;;6324460;28;19994;-78
2024/02/16 06:01:55;;;;;;;;;;;;;;;;;;6321621;28;19923;-79
2024/02/16 06:04:55;;;;;;;;;;;;;;;;;;6325744;28;19904;-78
2024/02/16 06:07:57;;;;;;;;;;;;;;;;;;6326154;28;19904;-78
2024/02/16 06:10:57;;;;;;;;;;;;;;;;;;6325502;28;19907;-78
2024/02/16 06:13:57;;;;;;;;;;;;;;;;;;6339990;28;19916;-77
2024/02/16 06:16:57;;;;;;;;;;;;;;;;;;6326662;28;19908;-78
2024/02/16 06:19:57;;;;;;;;;;;;;;;;;;6314157;28;19916;-78
2024/02/16 06:22:57;;;;;;;;;;;;;;;;;;6321475;28;19912;-77
2024/02/16 06:25:58;;;;;;;;;;;;;;;;;;6314774;28;20284;-78
2024/02/16 06:28:58;;;;;;;;;;;;;;;;;;6313629;28;20340;-78
2024/02/16 06:31:59;;;;;;;;;;;;;;;;;;6320965;28;20424;-78
2024/02/16 06:34:59;;;;;;;;;;;;;;;;;;6308349;28;19920;-78
2024/02/16 06:37:59;;;;;;;;;;;;;;;;;;6316290;28;20292;-76
2024/02/16 06:40:59;;;;;;;;;;;;;;;;;;6309621;28;20384;-76
2024/02/16 06:43:59;;;;;;;;;;;;;;;;;;6308384;28;19915;-76
2024/02/16 06:47:00;;;;;;;;;;;;;;;;;;6324256;28;20381;-76
2024/02/16 06:50:00;;;;;;;;;;;;;;;;;;6321039;28;20365;-78
2024/02/16 06:53:00;;;;;;;;;;;;;;;;;;6312048;28;19908;-78
2024/02/16 06:56:00;;;;;;;;;;;;;;;;;;6321282;28;20051;-80
2024/02/16 06:59:00;;;;;;;;;;;;;;;;;;6313426;28;19912;-79
2024/02/16 07:02:00;;;;;;;;;;;;;;;;;;6309081;28;20043;-77
2024/02/16 07:05:01;;;;;;;;;;;;;;;;;;6301659;28;19955;-78
2024/02/16 07:08:02;;;;;;;;;;;;;;;;;;6321689;28;20386;-77
2024/02/16 07:11:03;;;;;;;;;;;;;;;;;;6320680;28;19907;-78
2024/02/16 07:14:06;;;;;;;;;;;;;;;;;;6336816;28;19919;-78
2024/02/16 07:17:09;;;;;;;;;;;;;;;;;;6314754;28;20339;-78
2024/02/16 07:20:09;;;;;;;;;;;;;;;;;;6304404;28;19959;-77
2024/02/16 07:23:10;;;;;;;;;;;;;;;;;;6306583;28;20275;-77
2024/02/16 07:26:10;;;;;;;;;;;;;;;;;;6327328;28;20349;-77
2024/02/16 07:29:13;;;;;;;;;;;;;;;;;;6319596;28;19915;-77
2024/02/16 07:32:13;;;;;;;;;;;;;;;;;;6315685;28;19957;-77
2024/02/16 07:35:13;;;;;;;;;;;;;;;;;;6297630;28;19908;-78
2024/02/16 07:38:13;;;;;;;;;;;;;;;;;;6312765;28;19908;-78
2024/02/16 07:41:13;;;;;;;;;;;;;;;;;;6318484;28;20019;-78
2024/02/16 07:44:13;;;;;;;;;;;;;;;;;;6321350;28;20049;-78
2024/02/16 07:47:13;;;;;;;;;;;;;;;;;;6318900;28;19951;-78
2024/02/16 07:50:14;;;;;;;;;;;;;;;;;;6314916;28;19998;-78
2024/02/16 07:53:14;;;;;;;;;;;;;;;;;;6298996;28;19908;-78
2024/02/16 07:56:14;;;;;;;;;;;;;;;;;;6298089;28;20277;-78
2024/02/16 07:59:14;;;;;;;;;;;;;;;;;;6319115;28;20262;-78
2024/02/16 08:02:15;;;;;;;;;;;;;;;;;;6322617;28;19916;-77
2024/02/16 08:05:18;;;;;;;;;;;;;;;;;;6319574;28;20275;-78
2024/02/16 08:08:19;;;;;;;;;;;;;;;;;;6311835;28;20358;-80
2024/02/16 08:11:20;;;;;;;;;;;;;;;;;;6323353;28;19912;-77
2024/02/16 08:14:20;;;;;;;;;;;;;;;;;;6310324;28;19924;-76
2024/02/16 08:17:20;;;;;;;;;;;;;;;;;;6299791;28;20265;-76
2024/02/16 08:20:20;;;;;;;;;;;;;;;;;;6320085;28;19908;-77
2024/02/16 08:23:21;;;;;;;;;;;;;;;;;;6315174;28;19916;-77
2024/02/16 08:26:21;;;;;;;;;;;;;;;;;;6316608;28;19904;-76
2024/02/16 08:29:21;;;;;;;;;;;;;;;;;;6321643;28;19915;-77
2024/02/16 08:32:21;;;;;;;;;;;;;;;;;;6301421;28;20325;-75
2024/02/16 08:35:21;;;;;;;;;;;;;;;;;;6312793;28;19958;-75
2024/02/16 08:38:21;;;;;;;;;;;;;;;;;;6299501;28;19910;-75
2024/02/16 08:41:21;;;;;;;;;;;;;;;;;;6297546;28;19912;-74
2024/02/16 08:44:22;;;;;;;;;;;;;;;;;;6307706;28;20002;-74
2024/02/16 08:47:22;;;;;;;;;;;;;;;;;;6296774;28;19909;-75
2024/02/16 08:50:22;;;;;;;;;;;;;;;;;;6317210;28;19908;-75
2024/02/16 08:53:22;;;;;;;;;;;;;;;;;;6315624;28;20288;-75
2024/02/16 08:56:22;;;;;;;;;;;;;;;;;;6295869;28;19912;-75
2024/02/16 08:59:22;;;;;;;;;;;;;;;;;;6304406;28;20304;-75
2024/02/16 09:02:23;;;;;;;;;;;;;;;;;;6312119;28;20335;-76
2024/02/16 09:05:23;;;;;;;;;;;;;;;;;;6317796;28;19908;-76
2024/02/16 09:08:23;;;;;;;;;;;;;;;;;;6313352;28;20007;-75
2024/02/16 09:11:23;;;;;;;;;;;;;;;;;;6299533;28;19969;-75
2024/02/16 09:14:23;;;;;;;;;;;;;;;;;;6310699;28;19964;-74
2024/02/16 09:17:23;;;;;;;;;;;;;;;;;;6317024;28;19923;-75
2024/02/16 09:20:23;;;;;;;;;;;;;;;;;;6320507;28;19935;-75
2024/02/16 09:23:23;;;;;;;;;;;;;;;;;;6301529;28;19994;-75
2024/02/16 09:26:25;;;;;;;;;;;;;;;;;;6312511;28;20277;-75
2024/02/16 09:29:25;;;;;;;;;;;;;;;;;;6316864;28;20335;-75
2024/02/16 09:32:25;;;;;;;;;;;;;;;;;;6304205;28;19908;-75
2024/02/16 09:35:25;;;;;;;;;;;;;;;;;;6306727;28;19916;-75
2024/02/16 09:38:25;;;;;;;;;;;;;;;;;;6313380;28;19917;-75
2024/02/16 09:41:25;;;;;;;;;;;;;;;;;;6300161;28;19916;-75
2024/02/16 09:44:25;;;;;;;;;;;;;;;;;;6308374;28;19908;-79
2024/02/16 09:47:28;;;;;;;;;;;;;;;;;;6325532;28;19908;-79
2024/02/16 09:50:28;;;;;;;;;;;;;;;;;;6326460;28;19926;-81
2024/02/16 09:53:29;;;;;;;;;;;;;;;;;;6326074;28;19907;-80
2024/02/16 09:56:29;;;;;;;;;;;;;;;;;;6315744;28;19908;-80
2024/02/16 09:59:30;;;;;;;;;;;;;;;;;;6306941;28;19915;-80
2024/02/16 10:02:30;;;;;;;;;;;;;;;;;;6304110;28;19924;-80
2024/02/16 10:05:31;;;;;;;;;;;;;;;;;;6314307;28;19908;-80
2024/02/16 10:08:31;;;;;;;;;;;;;;;;;;6323162;28;19904;-79
2024/02/16 10:11:32;;;;;;;;;;;;;;;;;;6299537;28;19961;-79
2024/02/16 10:14:32;;;;;;;;;;;;;;;;;;6318876;28;20288;-79
2024/02/16 10:17:32;;;;;;;;;;;;;;;;;;6314940;28;19908;-78
2024/02/16 10:20:32;;;;;;;;;;;;;;;;;;6317979;28;19915;-77
2024/02/16 10:23:32;;;;;;;;;;;;;;;;;;6320996;28;19923;-78
2024/02/16 10:26:37;;;;;;;;;;;;;;;;;;6299464;28;19908;-78
2024/02/16 10:29:37;;;;;;;;;;;;;;;;;;6324607;28;19961;-78
2024/02/16 10:32:37;;;;;;;;;;;;;;;;;;6321955;28;19907;-78
2024/02/16 10:35:37;;;;;;;;;;;;;;;;;;6323565;28;19953;-78
2024/02/16 10:38:38;;;;;;;;;;;;;;;;;;6324183;28;19908;-78
2024/02/16 10:41:38;;;;;;;;;;;;;;;;;;6325463;28;19954;-78
2024/02/16 10:44:40;;;;;;;;;;;;;;;;;;6323818;28;19950;-78
2024/02/16 10:47:40;;;;;;;;;;;;;;;;;;6310929;28;19970;-78
2024/02/16 10:50:40;;;;;;;;;;;;;;;;;;6310835;28;20274;-78
2024/02/16 10:53:40;;;;;;;;;;;;;;;;;;6314615;28;20249;-78
2024/02/16 10:56:40;;;;;;;;;;;;;;;;;;6316279;28;19908;-78
2024/02/16 10:59:40;;;;;;;;;;;;;;;;;;6311364;28;19909;-79
2024/02/16 11:02:40;;;;;;;;;;;;;;;;;;6305979;28;19919;-79
2024/02/16 11:05:47;;;;;;;;;;;;;;;;;;6316722;28;19916;-77
2024/02/16 11:08:47;;;;;;;;;;;;;;;;;;6314167;28;19908;-77
2024/02/16 11:11:47;;;;;;;;;;;;;;;;;;6311141;28;19989;-77
2024/02/16 11:14:52;;;;;;;;;;;;;;;;;;6319832;28;20003;-78
2024/02/16 11:17:52;;;;;;;;;;;;;;;;;;6314221;28;19912;-77
2024/02/16 11:20:54;;;;;;;;;;;;;;;;;;6315085;28;19904;-77
2024/02/16 11:23:54;;;;;;;;;;;;;;;;;;6310243;28;19915;-77
2024/02/16 11:26:55;;;;;;;;;;;;;;;;;;6317801;28;19905;-77
2024/02/16 11:29:55;;;;;;;;;;;;;;;;;;6311863;28;19911;-77
2024/02/16 11:32:55;;;;;;;;;;;;;;;;;;6316585;28;19908;-77
2024/02/16 11:35:56;;;;;;;;;;;;;;;;;;6298156;28;19912;-77
2024/02/16 11:38:56;;;;;;;;;;;;;;;;;;6315663;28;19912;-77
2024/02/16 11:41:56;;;;;;;;;;;;;;;;;;6299526;28;20271;-79
2024/02/16 11:44:59;;;;;;;;;;;;;;;;;;6320401;28;19947;-77
2024/02/16 11:47:59;;;;;;;;;;;;;;;;;;6316502;28;19908;-77
2024/02/16 11:50:59;;;;;;;;;;;;;;;;;;6316187;28;19912;-77
2024/02/16 11:53:59;;;;;;;;;;;;;;;;;;6313280;28;19917;-82
2024/02/16 11:56:59;;;;;;;;;;;;;;;;;;6322420;28;19912;-79
2024/02/16 12:00:00;;;;;;;;;;;;;;;;;;6307468;28;19912;-78
2024/02/16 12:03:01;;;;;;;;;;;;;;;;;;6316396;28;19915;-78
2024/02/16 12:06:01;;;;;;;;;;;;;;;;;;6321756;28;19919;-78
2024/02/16 12:09:01;;;;;;;;;;;;;;;;;;6316931;28;19908;-79
2024/02/16 12:12:01;;;;;;;;;;;;;;;;;;6321206;28;19916;-78
2024/02/16 12:15:01;;;;;;;;;;;;;;;;;;6338509;28;19995;-78
2024/02/16 12:18:02;;;;;;;;;;;;;;;;;;6311202;28;20004;-78
2024/02/16 12:21:02;;;;;;;;;;;;;;;;;;6302265;28;19947;-78
2024/02/16 12:24:02;;;;;;;;;;;;;;;;;;6321783;28;19912;-78
2024/02/16 12:27:02;;;;;;;;;;;;;;;;;;6320711;28;20276;-78
2024/02/16 12:30:03;;;;;;;;;;;;;;;;;;6309649;28;19916;-78
2024/02/16 12:33:04;;;;;;;;;;;;;;;;;;6318372;28;19908;-78
2024/02/16 12:36:04;;;;;;;;;;;;;;;;;;6299041;28;19908;-78
2024/02/16 12:39:05;;;;;;;;;;;;;;;;;;6301513;28;19905;-78
2024/02/16 12:42:06;;;;;;;;;;;;;;;;;;6309395;28;19912;-78
2024/02/16 12:45:06;;;;;;;;;;;;;;;;;;6312192;28;19913;-78
2024/02/16 12:48:06;;;;;;;;;;;;;;;;;;6315219;28;20343;-78
2024/02/16 12:51:06;;;;;;;;;;;;;;;;;;6305082;28;19951;-78
2024/02/16 12:54:07;;;;;;;;;;;;;;;;;;6298973;28;19915;-78
2024/02/16 12:57:08;;;;;;;;;;;;;;;;;;6318113;28;19908;-79
2024/02/16 13:00:08;;;;;;;;;;;;;;;;;;6321820;28;19912;-78
2024/02/16 13:03:08;;;;;;;;;;;;;;;;;;6308442;28;19913;-80
2024/02/16 13:06:08;;;;;;;;;;;;;;;;;;6302238;28;19912;-80
2024/02/16 13:09:08;;;;;;;;;;;;;;;;;;6314463;28;19916;-79
2024/02/16 13:12:08;;;;;;;;;;;;;;;;;;6308011;28;20288;-80
2024/02/16 13:15:08;;;;;;;;;;;;;;;;;;6317792;28;20370;-81
2024/02/16 13:18:09;;;;;;;;;;;;;;;;;;6304238;28;20375;-80
2024/02/16 13:21:09;;;;;;;;;;;;;;;;;;6325682;28;20275;-80
2024/02/16 13:24:09;;;;;;;;;;;;;;;;;;6309769;28;19912;-80
2024/02/16 13:27:09;;;;;;;;;;;;;;;;;;6300435;28;20296;-80
2024/02/16 13:30:09;;;;;;;;;;;;;;;;;;6314077;28;20405;-80
2024/02/16 13:33:09;;;;;;;;;;;;;;;;;;6324855;28;19904;-80
2024/02/16 13:36:09;;;;;;;;;;;;;;;;;;6324567;28;19908;-80
2024/02/16 13:39:10;;;;;;;;;;;;;;;;;;6317110;28;19908;-80
2024/02/16 13:42:10;;;;;;;;;;;;;;;;;;6312163;28;20003;-81
2024/02/16 13:45:10;;;;;;;;;;;;;;;;;;6324920;28;19912;-80
2024/02/16 13:48:11;;;;;;;;;;;;;;;;;;6326404;28;20010;-81
2024/02/16 13:51:11;;;;;;;;;;;;;;;;;;6324514;28;19908;-80
2024/02/16 13:54:11;;;;;;;;;;;;;;;;;;6326125;28;19927;-80
2024/02/16 13:57:11;;;;;;;;;;;;;;;;;;6321954;28;19908;-81
2024/02/16 14:00:11;;;;;;;;;;;;;;;;;;6322827;28;19908;-80
2024/02/16 14:03:11;;;;;;;;;;;;;;;;;;6301843;28;19915;-81
2024/02/16 14:06:11;;;;;;;;;;;;;;;;;;6303535;28;19912;-81
2024/02/16 14:09:13;;;;;;;;;;;;;;;;;;6324095;28;19931;-81
2024/02/16 14:12:14;;;;;;;;;;;;;;;;;;6309964;28;20436;-81
2024/02/16 14:15:15;;;;;;;;;;;;;;;;;;6330770;28;19946;-81
2024/02/16 14:18:15;;;;;;;;;;;;;;;;;;6313050;28;19970;-81
2024/02/16 14:21:15;;;;;;;;;;;;;;;;;;6299575;28;20392;-81
2024/02/16 14:24:16;;;;;;;;;;;;;;;;;;6300343;28;19931;-81
2024/02/16 14:27:16;;;;;;;;;;;;;;;;;;6320510;28;19912;-81
2024/02/16 14:30:17;;;;;;;;;;;;;;;;;;6319352;28;19950;-78
2024/02/16 14:33:17;;;;;;;;;;;;;;;;;;6323347;28;19938;-77
2024/02/16 14:36:17;;;;;;;;;;;;;;;;;;6305772;28;20361;-78
2024/02/16 14:39:17;;;;;;;;;;;;;;;;;;6300296;28;20308;-78
2024/02/16 14:42:17;;;;;;;;;;;;;;;;;;6299825;28;19953;-78
2024/02/16 14:45:21;;;;;;;;;;;;;;;;;;6304195;28;20299;-78
2024/02/16 14:48:21;;;;;;;;;;;;;;;;;;6313971;28;19920;-78
2024/02/16 14:51:21;;;;;;;;;;;;;;;;;;6316944;28;19912;-78
2024/02/16 14:54:21;;;;;;;;;;;;;;;;;;6331892;28;19912;-78
2024/02/16 14:57:24;;;;;;;;;;;;;;;;;;6340678;28;20292;-78
2024/02/16 15:00:24;;;;;;;;;;;;;;;;;;6299178;28;19908;-78
2024/02/16 15:03:27;;;;;;;;;;;;;;;;;;6299182;28;20280;-78
2024/02/16 15:06:27;;;;;;;;;;;;;;;;;;6310679;28;19913;-78
2024/02/16 15:09:28;;;;;;;;;;;;;;;;;;6315779;28;19934;-78
2024/02/16 15:12:29;;;;;;;;;;;;;;;;;;6323218;28;19915;-78
2024/02/16 15:15:29;;;;;;;;;;;;;;;;;;6338704;28;19912;-78
2024/02/16 15:18:29;;;;;;;;;;;;;;;;;;6311404;28;19920;-78
2024/02/16 15:21:29;;;;;;;;;;;;;;;;;;6301312;28;20275;-78
2024/02/16 15:24:29;;;;;;;;;;;;;;;;;;6320115;28;19908;-78
2024/02/16 15:27:29;;;;;;;;;;;;;;;;;;6314366;28;19912;-78
2024/02/16 15:30:30;;;;;;;;;;;;;;;;;;6314379;28;19912;-79
2024/02/16 15:33:31;;;;;;;;;;;;;;;;;;6321804;28;20282;-78
2024/02/16 15:36:31;;;;;;;;;;;;;;;;;;6321848;28;19908;-79
2024/02/16 15:39:31;;;;;;;;;;;;;;;;;;6323270;28;19919;-78
2024/02/16 15:42:31;;;;;;;;;;;;;;;;;;6321579;28;19912;-78
2024/02/16 15:45:32;;;;;;;;;;;;;;;;;;6321250;28;19916;-79
2024/02/16 15:48:32;;;;;;;;;;;;;;;;;;6313338;28;19915;-81
2024/02/16 15:51:32;;;;;;;;;;;;;;;;;;6324974;28;19907;-78
2024/02/16 15:54:33;;;;;;;;;;;;;;;;;;6310860;28;20425;-78
2024/02/16 15:57:33;;;;;;;;;;;;;;;;;;6322161;28;19910;-78
2024/02/16 16:00:34;;;;;;;;;;;;;;;;;;6320516;28;20360;-78
2024/02/16 16:03:34;;;;;;;;;;;;;;;;;;6317075;28;19908;-78
2024/02/16 16:06:34;;;;;;;;;;;;;;;;;;6304464;28;19919;-78
2024/02/16 16:09:34;;;;;;;;;;;;;;;;;;6307050;28;19981;-78
2024/02/16 16:12:34;;;;;;;;;;;;;;;;;;6314765;28;20015;-78
2024/02/16 16:15:34;;;;;;;;;;;;;;;;;;6314644;28;20680;-78
2024/02/16 16:18:35;;;;;;;;;;;;;;;;;;6322754;28;20330;-78
2024/02/16 16:21:35;;;;;;;;;;;;;;;;;;6307040;28;19957;-78
2024/02/16 16:24:35;;;;;;;;;;;;;;;;;;6304199;28;19909;-78
2024/02/16 16:27:35;;;;;;;;;;;;;;;;;;6333811;28;19903;-78
2024/02/16 16:30:35;;;;;;;;;;;;;;;;;;6316677;28;20380;-79
2024/02/16 16:33:35;;;;;;;;;;;;;;;;;;6312506;28;19923;-78
2024/02/16 16:36:36;;;;;;;;;;;;;;;;;;6298486;28;19953;-78
2024/02/16 16:39:36;;;;;;;;;;;;;;;;;;6299685;28;19904;-78
2024/02/16 16:42:36;;;;;;;;;;;;;;;;;;6301568;28;19916;-78
2024/02/16 16:45:37;;;;;;;;;;;;;;;;;;6316661;28;19920;-73
2024/02/16 16:48:38;;;;;;;;;;;;;;;;;;6307179;28;20351;-73
2024/02/16 16:51:38;;;;;;;;;;;;;;;;;;6309033;28;20000;-74
2024/02/16 16:54:38;;;;;;;;;;;;;;;;;;6323829;28;19999;-73
2024/02/16 16:57:38;;;;;;;;;;;;;;;;;;6305159;28;19908;-74
2024/02/16 17:00:38;;;;;;;;;;;;;;;;;;6304874;28;19940;-74
2024/02/16 17:03:38;;;;;;;;;;;;;;;;;;6327390;28;19912;-73
2024/02/16 17:06:38;;;;;;;;;;;;;;;;;;6322498;28;20307;-73
2024/02/16 17:09:39;;;;;;;;;;;;;;;;;;6327402;28;19908;-73
2024/02/16 17:12:40;;;;;;;;;;;;;;;;;;6332559;28;20010;-74
2024/02/16 17:15:40;;;;;;;;;;;;;;;;;;6355373;27;19998;-73
2024/02/16 17:18:40;;;;;;;;;;;;;;;;;;6336789;27;19908;-73
2024/02/16 17:21:41;;;;;;;;;;;;;;;;;;6329501;28;20021;-73
2024/02/16 17:24:42;;;;;;;;;;;;;;;;;;6321228;28;19912;-73
2024/02/16 17:27:42;;;;;;;;;;;;;;;;;;6310556;28;19915;-72
2024/02/16 17:30:43;;;;;;;;;;;;;;;;;;6318101;28;19912;-73
2024/02/16 17:33:43;;;;;;;;;;;;;;;;;;6306926;28;19912;-73
2024/02/16 17:36:44;;;;;;;;;;;;;;;;;;6307435;28;20360;-73
2024/02/16 17:39:47;;;;;;;;;;;;;;;;;;6324959;28;19919;-72
2024/02/16 17:42:47;;;;;;;;;;;;;;;;;;6325099;28;20006;-72
2024/02/16 17:45:47;;;;;;;;;;;;;;;;;;6329650;28;19912;-73
2024/02/16 17:48:48;;;;;;;;;;;;;;;;;;6327751;28;20326;-72
2024/02/16 17:51:48;;;;;;;;;;;;;;;;;;6329899;28;20313;-72
2024/02/16 17:54:48;;;;;;;;;;;;;;;;;;6322596;28;19908;-72
2024/02/16 17:57:48;;;;;;;;;;;;;;;;;;6300078;28;19947;-77
2024/02/16 18:00:48;;;;;;;;;;;;;;;;;;6300114;28;19998;-77
2024/02/16 18:03:48;;;;;;;;;;;;;;;;;;6300296;28;20059;-76
2024/02/16 18:06:48;;;;;;;;;;;;;;;;;;6301178;28;20003;-79
2024/02/16 18:09:48;;;;;;;;;;;;;;;;;;6307823;28;20002;-76
2024/02/16 18:12:49;;;;;;;;;;;;;;;;;;6316218;28;20073;-77
2024/02/16 18:15:49;;;;;;;;;;;;;;;;;;6317849;28;20297;-78
2024/02/16 18:18:49;;;;;;;;;;;;;;;;;;6325177;28;19908;-75
2024/02/16 18:21:49;;;;;;;;;;;;;;;;;;6322459;28;19936;-76
2024/02/16 18:24:49;;;;;;;;;;;;;;;;;;6309666;28;19908;-76
2024/02/16 18:27:49;;;;;;;;;;;;;;;;;;6324264;28;19914;-76
2024/02/16 18:30:50;;;;;;;;;;;;;;;;;;6324344;28;19999;-75
2024/02/16 18:33:50;;;;;;;;;;;;;;;;;;6322885;28;19930;-75
2024/02/16 18:36:53;;;;;;;;;;;;;;;;;;6324945;28;19970;-75
2024/02/16 18:39:53;;;;;;;;;;;;;;;;;;6314659;28;19908;-75
2024/02/16 18:42:54;;;;;;;;;;;;;;;;;;6323117;28;20316;-76
2024/02/16 18:45:54;;;;;;;;;;;;;;;;;;6320307;28;19919;-75
2024/02/16 18:48:54;;;;;;;;;;;;;;;;;;6315624;28;19970;-76
2024/02/16 18:51:54;;;;;;;;;;;;;;;;;;6321356;28;19953;-76
2024/02/16 18:54:54;;;;;;;;;;;;;;;;;;6311537;28;20280;-76
2024/02/16 18:57:54;;;;;;;;;;;;;;;;;;6301701;28;19911;-76
2024/02/16 19:00:54;;;;;;;;;;;;;;;;;;6311823;28;19994;-76
2024/02/16 19:03:55;;;;;;;;;;;;;;;;;;6314562;28;19918;-76
2024/02/16 19:06:55;;;;;;;;;;;;;;;;;;6305591;28;19947;-78
2024/02/16 19:09:57;;;;;;;;;;;;;;;;;;6300506;28;19947;-79
2024/02/16 19:12:57;;;;;;;;;;;;;;;;;;6320454;28;20447;-79
2024/02/16 19:15:59;;;;;;;;;;;;;;;;;;6340694;28;19914;-79
2024/02/16 19:18:59;;;;;;;;;;;;;;;;;;6298724;28;19908;-79
2024/02/16 19:21:59;;;;;;;;;;;;;;;;;;6310128;28;19913;-80
2024/02/16 19:25:00;;;;;;;;;;;;;;;;;;6316894;28;19908;-79
2024/02/16 19:28:00;;;;;;;;;;;;;;;;;;6319537;28;19912;-79
2024/02/16 19:31:01;;;;;;;;;;;;;;;;;;6311236;28;19920;-79
2024/02/16 19:34:01;;;;;;;;;;;;;;;;;;6314768;28;20364;-79
2024/02/16 19:37:01;;;;;;;;;;;;;;;;;;6313761;28;19912;-79
2024/02/16 19:40:01;;;;;;;;;;;;;;;;;;6308284;28;19912;-79
2024/02/16 19:43:02;;;;;;;;;;;;;;;;;;6320090;28;19912;-79
2024/02/16 19:46:03;;;;;;;;;;;;;;;;;;6318984;28;19922;-79
2024/02/16 19:49:03;;;;;;;;;;;;;;;;;;6300386;28;19912;-79
2024/02/16 19:52:03;;;;;;;;;;;;;;;;;;6305311;28;19920;-79
2024/02/16 19:55:03;;;;;;;;;;;;;;;;;;6316793;28;19916;-79
2024/02/16 19:58:03;;;;;;;;;;;;;;;;;;6308907;28;19947;-79
2024/02/16 20:01:03;;;;;;;;;;;;;;;;;;6321225;28;19932;-79
2024/02/16 20:04:03;;;;;;;;;;;;;;;;;;6317771;28;19915;-79
2024/02/16 20:07:04;;;;;;;;;;;;;;;;;;6296959;28;19924;-79
2024/02/16 20:10:04;;;;;;;;;;;;;;;;;;6307575;28;20352;-79
2024/02/16 20:13:05;;;;;;;;;;;;;;;;;;6326918;28;19934;-79
2024/02/16 20:16:05;;;;;;;;;;;;;;;;;;6319775;28;19908;-79
2024/02/16 20:19:05;;;;;;;;;;;;;;;;;;6317656;28;19953;-79
2024/02/16 20:22:05;;;;;;;;;;;;;;;;;;6313723;28;19916;-79
2024/02/16 20:25:06;;;;;;;;;;;;;;;;;;6317860;28;19912;-79
2024/02/16 20:28:07;;;;;;;;;;;;;;;;;;6313498;28;19911;-79
2024/02/16 20:31:09;;;;;;;;;;;;;;;;;;6313753;28;19908;-78